Terminal Aerodrome Forecast
Issued by NWS

Home | Current Version | Previous Version | Text Only | Print | Product List | Glossary On
Versions: 1 2 3 4 5 6 7 8 9 10 11 12 13 14 15
000
FTUS46 KPDT 210533
TAFPSC
TAF
KPSC 210533Z 2106/2206 21007KT P6SM SCT120
     FM210900 21006KT P6SM BKN090
     FM211300 36005KT 6SM -RA BR OVC045
     FM220100 23008KT P6SM OVC060=

USA.gov is the U.S. government's official web portal to all federal, state and local government web resources and services.